aviador You're here:

CYXS Decoded Metar

PRINCE GEORGE in BC, CANADA
Report Time2017-11-21 05:00:00
UTC Time2017-11-21 06:10:20
Flight Rules Old
Wind020° at 04 kt
W.Decomp.*RWY 01: 3.9 kt HW 0.8 kt LCW
RWY 33: 3.5 kt HW 1.9 kt RCW
RWY 06: 1.9 kt HW 3.5 kt LCW
W.Rank020° ranks 10
Current wind is below 020° avg. (5.9)
Visibility9999 m
Phenomena:N/A
Clouds:Overcast 008 Hf
Ceiling800 ft
Temp-6°C (ISA -17)
Dew Point-6°C (100% RH)
AAT-10.2°C
QNH1015 hPa
Density Alt230 ft
Elevation2,267 ft
Report Wrong Elevation
Raw Report
CYXS 210500Z AUTO 02004KT 9SM OVC008 M06/M06 A2996 RMK SLP189=

Extra information for CYXS:More info

Metar Taf Metar & Taf Last 4 Metars F.Rules Stats Wind Profile Meteogram Temp Stats Airport Information Weather charts Add Link Nearby VenuesMetar ALERT Operation Metar Decoded Social comments